»·PEaware :: N17MA L52-L88

N17MA :: L52-L88

FLIGHT INFORMATION

Flight Status: Arrived
Operator: Privately registered:
United States
More flights under this callsign
Pilot: Diego M. (28112)
Aircraft: CESSNA 172 SKYHAWK
(C172)
More flights by this aircraft type
Origin: L52 Oceano Co
United States
Destination: L88 New Cuyama
United States
More flights between these airports :: More routes between these airports
Route: L52 L88
File this flight plan on PilotEdge
Remarks: CAT1
Altitude:
(Current/Filed)
7,500ft
Speed:
(Current/Filed)
120kts
Departed: 29-Mar-20 01:39 PM
Arrived: 29-Mar-20 02:05 PM
Distance/Time
Traveled:
47nm/0:26
Distance/Time
To Go:
Arrived

Flight Plot

Page will automatically refresh every two minutes.


Map Options




Map Legend


Flown Route
Filed Route
Departure Airport
Arrival Airport
Navaid (VOR, NDB)
Fix

Horizontal Profiles

Position Reports

Time Latitude Longitude Heading Altitude Ground
Speed
29-Mar-20 13:18 35.103273 -120.624321 0 18ft 0kts
29-Mar-20 13:19 35.103273 -120.624321 33 18ft 0kts
29-Mar-20 13:20 35.103273 -120.624321 33 18ft 0kts
29-Mar-20 13:21 35.103273 -120.624321 33 18ft 0kts
29-Mar-20 13:22 35.103273 -120.624321 33 18ft 0kts
29-Mar-20 13:23 35.103273 -120.624321 33 18ft 0kts
29-Mar-20 13:24 35.103273 -120.624321 33 18ft 0kts
29-Mar-20 13:25 35.103273 -120.624321 33 18ft 0kts
29-Mar-20 13:26 35.103273 -120.624321 33 18ft 0kts
29-Mar-20 13:27 35.103273 -120.624321 33 18ft 0kts
29-Mar-20 13:28 35.103273 -120.624321 33 18ft 0kts
29-Mar-20 13:29 35.103273 -120.624321 33 18ft 0kts
29-Mar-20 13:30 35.103273 -120.624321 33 18ft 0kts
29-Mar-20 13:31 35.103273 -120.624321 33 18ft 0kts
29-Mar-20 13:32 35.103273 -120.624321 33 18ft 0kts
29-Mar-20 13:33 35.103273 -120.624321 33 18ft 0kts
29-Mar-20 13:34 35.103281 -120.624349 217 18ft 1kts
29-Mar-20 13:35 35.102031 -120.622320 129 18ft 11kts
29-Mar-20 13:36 35.100402 -120.621152 121 18ft 16kts
29-Mar-20 13:37 35.099545 -120.619517 55 18ft 0kts
29-Mar-20 13:38 35.104265 -120.628089 299 275ft 67kts
29-Mar-20 13:39 35.119285 -120.636612 26 978ft 99kts
29-Mar-20 13:40 35.119661 -120.602509 115 1582ft 124kts
29-Mar-20 13:41 35.103673 -120.564874 116 2192ft 125kts
29-Mar-20 13:42 35.089351 -120.526608 94 2798ft 123kts
29-Mar-20 13:43 35.092982 -120.483293 73 3042ft 137kts
29-Mar-20 13:44 35.105397 -120.438615 61 3054ft 139kts
29-Mar-20 13:45 35.110476 -120.391240 86 3033ft 145kts
29-Mar-20 13:46 35.109622 -120.341930 94 2990ft 144kts
29-Mar-20 13:47 35.106021 -120.292996 92 2989ft 144kts
29-Mar-20 13:48 35.103236 -120.244167 91 3018ft 144kts
29-Mar-20 13:49 35.102166 -120.195008 89 3041ft 143kts
29-Mar-20 13:50 35.101093 -120.147662 89 3242ft 141kts
29-Mar-20 13:51 35.104281 -120.099478 90 3222ft 144kts
29-Mar-20 13:52 35.093461 -120.052585 117 3223ft 144kts
29-Mar-20 13:53 35.070414 -120.012570 127 3227ft 143kts
29-Mar-20 13:54 35.046223 -119.973712 127 3231ft 143kts
29-Mar-20 13:55 35.022284 -119.935005 125 3236ft 143kts
29-Mar-20 13:56 35.000098 -119.894505 121 3243ft 143kts
29-Mar-20 13:57 34.979993 -119.852407 117 3251ft 144kts
29-Mar-20 13:58 34.961621 -119.808874 115 3264ft 144kts
29-Mar-20 13:59 34.944832 -119.764557 111 3274ft 144kts
29-Mar-20 14:00 34.929130 -119.719495 111 3284ft 145kts
29-Mar-20 14:01 34.915683 -119.680429 112 3254ft 98kts
29-Mar-20 14:02 34.921537 -119.655960 353 3069ft 68kts
29-Mar-20 14:04 34.933056 -119.668546 296 2511ft 60kts
29-Mar-20 14:05 34.939131 -119.683564 297 2207ft 34kts
29-Mar-20 14:06 34.942061 -119.690762 299 2207ft 15kts
29-Mar-20 14:07 34.943582 -119.690782 357 2207ft 7kts
29-Mar-20 14:08 34.943848 -119.691035 119 2207ft 0kts
29-Mar-20 14:09 34.943848 -119.691035 119 2207ft 0kts
29-Mar-20 14:10 34.943848 -119.691035 119 2207ft 0kts
29-Mar-20 14:11 34.943848 -119.691035 119 2207ft 0kts
29-Mar-20 14:12 34.943848 -119.691035 119 2207ft 0kts
29-Mar-20 14:13 34.943848 -119.691035 119 2207ft 0kts
29-Mar-20 14:14 34.943848 -119.691035 119 2207ft 0kts
29-Mar-20 14:15 34.943848 -119.691035 119 2207ft 0kts
29-Mar-20 14:16 34.943848 -119.691035 119 2207ft 0kts
29-Mar-20 14:17 34.943848 -119.691035 119 2207ft 0kts
29-Mar-20 14:18 34.943848 -119.691035 119 2207ft 0kts
29-Mar-20 14:19 34.943848 -119.691035 119 2207ft 0kts

Navigation Log

Ident Type
Flight plan parsing failed, navigation log unavailable